createdAt,value
2019-01-30T00:03:07.359Z,14.87
2019-01-30T00:05:47.968Z,16.30
2019-01-30T00:08:29.405Z,14.60
2019-01-30T00:11:07.850Z,16.40
2019-01-30T00:16:47.439Z,20.17
2019-01-30T00:19:28.240Z,20.97
2019-01-30T00:22:08.856Z,19.57
2019-01-30T00:27:57.763Z,20.93
2019-01-30T00:30:37.265Z,21.90
2019-01-30T00:33:17.984Z,21.40
2019-01-30T00:35:57.716Z,22.40
2019-01-30T00:38:38.765Z,22.23
2019-01-30T00:41:19.892Z,22.47
2019-01-30T00:44:01.217Z,21.93
2019-01-30T00:46:42.458Z,21.30
2019-01-30T00:49:24.021Z,20.23
2019-01-30T00:52:05.133Z,20.33
2019-01-30T00:54:45.843Z,20.33
2019-01-30T00:57:26.452Z,20.33
2019-01-30T01:00:14.417Z,19.63
2019-01-30T01:02:50.269Z,18.33
2019-01-30T01:05:30.902Z,18.30
2019-01-30T01:08:10.571Z,18.77
2019-01-30T01:10:51.968Z,18.37
2019-01-30T01:13:33.453Z,18.90
2019-01-30T01:16:14.883Z,18.07
2019-01-30T01:18:56.463Z,18.13
2019-01-30T01:21:37.453Z,16.73
2019-01-30T01:24:18.812Z,16.60
2019-01-30T01:27:00.317Z,15.37
2019-01-30T01:29:41.414Z,14.50
2019-01-30T01:32:22.119Z,13.97
2019-01-30T01:35:02.856Z,15.20
2019-01-30T01:37:42.807Z,14.03
2019-01-30T01:43:36.765Z,13.40
2019-01-30T01:46:18.040Z,14.07
2019-01-30T01:48:59.032Z,14.23
2019-01-30T01:51:39.945Z,13.77
2019-01-30T01:54:21.514Z,13.30
2019-01-30T01:57:02.858Z,13.70
2019-01-30T01:59:44.162Z,13.10
2019-01-30T02:02:25.366Z,13.03
2019-01-30T02:05:06.323Z,11.70
2019-01-30T02:07:47.174Z,11.90
2019-01-30T02:10:28.303Z,12.00
2019-01-30T02:13:10.045Z,11.87
2019-01-30T02:15:51.424Z,11.80
2019-01-30T02:18:33.015Z,11.97
2019-01-30T02:21:12.674Z,11.30
2019-01-30T02:24:01.280Z,11.57
2019-01-30T02:26:42.526Z,11.03
2019-01-30T02:29:23.573Z,12.07
2019-01-30T02:32:05.048Z,11.50
2019-01-30T02:34:46.505Z,11.13
2019-01-30T02:37:27.540Z,10.80
2019-01-30T02:40:07.586Z,11.03
2019-01-30T02:42:48.998Z,10.60
2019-01-30T02:48:42.933Z,10.17
2019-01-30T02:51:24.245Z,10.70
2019-01-30T02:54:05.072Z,9.67
2019-01-30T02:56:46.372Z,10.40
2019-01-30T02:59:27.946Z,9.33
2019-01-30T03:02:28.178Z,10.67
2019-01-30T03:05:09.790Z,9.73
2019-01-30T03:07:51.134Z,9.63
2019-01-30T03:10:32.821Z,9.33
2019-01-30T03:13:14.156Z,9.90
2019-01-30T03:15:55.171Z,9.73
2019-01-30T03:18:36.415Z,9.53
2019-01-30T03:21:17.375Z,9.53
2019-01-30T03:23:58.800Z,8.00
2019-01-30T03:26:40.110Z,9.63
2019-01-30T03:29:20.201Z,9.70
2019-01-30T03:32:01.328Z,8.43
2019-01-30T03:34:42.687Z,8.83
2019-01-30T03:37:22.355Z,8.77
2019-01-30T03:43:19.031Z,8.63
2019-01-30T03:46:00.268Z,9.17
2019-01-30T03:48:41.239Z,8.50
2019-01-30T03:51:21.763Z,8.93
2019-01-30T03:56:40.849Z,9.17
2019-01-30T03:59:21.690Z,8.27
2019-01-30T04:02:02.517Z,8.77
2019-01-30T04:04:44.009Z,8.77
2019-01-30T04:07:24.661Z,8.17
2019-01-30T04:10:06.092Z,8.17
2019-01-30T04:12:47.636Z,8.73
2019-01-30T04:15:28.905Z,8.33
2019-01-30T04:18:09.558Z,7.67
2019-01-30T04:20:51.047Z,8.63
2019-01-30T04:23:31.724Z,8.77
2019-01-30T04:26:11.136Z,9.23
2019-01-30T04:28:52.489Z,8.87
2019-01-30T04:31:38.291Z,8.40
2019-01-30T04:34:16.621Z,8.97
2019-01-30T04:36:57.744Z,9.27
2019-01-30T04:39:39.173Z,9.93
2019-01-30T04:42:19.034Z,9.53
2019-01-30T04:45:00.097Z,9.77
2019-01-30T04:47:41.483Z,9.30
2019-01-30T04:50:20.948Z,9.90
2019-01-30T04:53:09.486Z,9.50
2019-01-30T04:55:50.253Z,8.87
2019-01-30T04:58:31.662Z,10.00
2019-01-30T05:01:11.176Z,9.30
2019-01-30T05:06:59.698Z,9.80
2019-01-30T05:09:40.894Z,9.60
2019-01-30T05:12:22.434Z,10.17
2019-01-30T05:15:03.634Z,10.87
2019-01-30T05:17:44.851Z,9.83
2019-01-30T05:20:25.448Z,9.73
2019-01-30T05:23:06.722Z,9.83
2019-01-30T05:25:47.445Z,10.10
2019-01-30T05:28:28.623Z,9.87
2019-01-30T05:31:09.985Z,9.10
2019-01-30T05:33:50.614Z,9.00
2019-01-30T05:36:31.311Z,9.03
2019-01-30T05:39:12.501Z,9.90
2019-01-30T05:41:53.220Z,9.97
2019-01-30T05:44:34.343Z,9.93
2019-01-30T05:47:15.458Z,9.33
2019-01-30T05:49:56.431Z,10.10
2019-01-30T05:52:37.749Z,10.43
2019-01-30T05:55:18.366Z,9.90
2019-01-30T06:01:08.294Z,10.83
2019-01-30T06:03:49.738Z,9.43
2019-01-30T06:06:31.045Z,10.80
2019-01-30T06:09:12.534Z,11.07
2019-01-30T06:11:52.082Z,11.27
2019-01-30T06:14:40.569Z,10.40
2019-01-30T06:17:21.759Z,10.00
2019-01-30T06:20:03.112Z,10.70
2019-01-30T08:39:28.833Z,11.53
2019-01-30T08:42:10.383Z,11.87
2019-01-30T08:47:49.936Z,11.33
2019-01-30T08:50:30.084Z,11.73
2019-01-30T08:53:10.380Z,11.20
2019-01-30T08:55:50.650Z,10.23
2019-01-30T08:58:30.888Z,11.50
2019-01-30T09:01:11.118Z,11.20
2019-01-30T09:03:49.538Z,10.83
2019-01-30T09:06:27.910Z,10.33
2019-01-30T09:09:08.829Z,10.63
2019-01-30T09:11:50.021Z,10.20
2019-01-30T09:14:31.121Z,10.70
2019-01-30T09:17:11.274Z,10.87
2019-01-30T09:22:51.634Z,10.30
2019-01-30T09:25:32.560Z,9.73
2019-01-30T09:28:13.920Z,10.90
2019-01-30T09:30:54.646Z,10.43
2019-01-30T09:33:36.314Z,9.83
2019-01-30T09:36:17.308Z,10.13
2019-01-30T09:38:57.833Z,10.80
2019-01-30T09:41:37.431Z,9.43
2019-01-30T09:44:16.920Z,9.93
2019-01-30T09:53:10.948Z,9.83
2019-01-30T09:55:50.524Z,10.03
2019-01-30T09:58:31.371Z,8.87
2019-01-30T10:01:12.082Z,9.57
2019-01-30T10:03:53.237Z,10.73
2019-01-30T10:06:32.898Z,9.97
2019-01-30T10:09:13.999Z,11.00
2019-01-30T10:11:54.978Z,10.57
2019-01-30T10:14:35.735Z,10.67
2019-01-30T10:17:16.533Z,11.20
2019-01-30T10:19:57.774Z,11.37
2019-01-30T10:22:38.949Z,11.97
2019-01-30T10:25:19.637Z,11.03
2019-01-30T10:28:00.735Z,10.67
2019-01-30T10:30:41.489Z,9.97
2019-01-30T10:33:22.543Z,11.03
2019-01-30T10:36:03.415Z,11.50
2019-01-30T10:38:44.383Z,11.70
2019-01-30T10:41:25.895Z,11.63
2019-01-30T10:44:07.409Z,12.83
2019-01-30T10:46:47.991Z,11.70
2019-01-30T10:49:28.777Z,12.97
2019-01-30T10:52:10.185Z,13.00
2019-01-30T10:54:49.885Z,11.10
2019-01-30T10:57:30.525Z,11.60
2019-01-30T11:00:17.595Z,12.50
2019-01-30T11:02:58.548Z,11.67
2019-01-30T11:05:38.083Z,12.50
2019-01-30T11:08:18.835Z,12.03
2019-01-30T11:11:07.561Z,11.73
2019-01-30T11:13:42.975Z,11.77
2019-01-30T11:16:23.850Z,11.93
2019-01-30T11:19:04.792Z,11.33
2019-01-30T11:21:44.987Z,11.37
2019-01-30T11:24:25.435Z,11.70
2019-01-30T11:27:05.612Z,11.30
2019-01-30T11:29:44.354Z,11.23
2019-01-30T11:32:24.284Z,12.83
2019-01-30T11:35:04.992Z,13.17
2019-01-30T11:37:46.508Z,12.20
2019-01-30T11:40:26.403Z,12.53
2019-01-30T11:43:14.874Z,13.37
2019-01-30T11:45:55.865Z,13.20
2019-01-30T11:48:36.476Z,13.10
2019-01-30T11:51:18.935Z,11.67
2019-01-30T11:53:59.744Z,12.27
2019-01-30T11:56:41.197Z,11.23
2019-01-30T11:59:22.487Z,11.97
2019-01-30T12:02:03.262Z,11.57
2019-01-30T12:04:44.310Z,11.83
2019-01-30T12:07:25.474Z,12.40
2019-01-30T12:10:06.733Z,11.20
2019-01-30T12:12:47.535Z,12.17
2019-01-30T12:18:40.211Z,11.60
2019-01-30T12:21:21.479Z,11.30
2019-01-30T12:24:02.505Z,10.97
2019-01-30T12:26:43.565Z,12.07
2019-01-30T12:29:24.728Z,10.97
2019-01-30T12:32:05.333Z,9.13
2019-01-30T12:34:46.168Z,10.87
2019-01-30T12:37:25.844Z,11.50
2019-01-30T12:40:07.059Z,10.30
2019-01-30T12:42:47.686Z,11.60
2019-01-30T12:45:28.987Z,11.17
2019-01-30T12:48:10.863Z,10.13
2019-01-30T12:50:52.252Z,10.57
2019-01-30T12:53:34.757Z,10.80
2019-01-30T12:56:15.256Z,11.50
2019-01-30T12:58:55.989Z,10.47
2019-01-30T13:01:36.894Z,12.07
2019-01-30T13:04:16.423Z,10.13
2019-01-30T13:06:57.675Z,10.83
2019-01-30T13:09:39.286Z,11.07
2019-01-30T13:12:19.920Z,10.83
2019-01-30T13:15:00.609Z,11.60
2019-01-30T13:17:41.818Z,11.23
2019-01-30T13:20:23.478Z,9.50
2019-01-30T13:23:04.541Z,10.47
2019-01-30T13:25:46.931Z,9.73
2019-01-30T13:28:28.435Z,10.10
2019-01-30T13:31:09.840Z,10.70
2019-01-30T13:33:50.831Z,10.10
2019-01-30T13:36:32.330Z,8.50
2019-01-30T13:39:13.442Z,8.53
2019-01-30T13:41:54.968Z,8.40
2019-01-30T13:44:35.955Z,8.17
2019-01-30T13:47:17.299Z,8.20
2019-01-30T13:49:58.398Z,7.97
2019-01-30T13:52:40.016Z,8.23
2019-01-30T13:55:21.279Z,8.67
2019-01-30T13:58:02.564Z,9.20
2019-01-30T14:00:43.649Z,9.07
2019-01-30T14:03:24.367Z,8.27
2019-01-30T14:06:05.756Z,7.63
2019-01-30T14:08:46.354Z,6.80
2019-01-30T14:11:27.736Z,6.33
2019-01-30T14:14:09.171Z,6.07
2019-01-30T14:16:50.754Z,6.80
2019-01-30T14:19:31.599Z,7.23
2019-01-30T14:22:13.036Z,6.70
2019-01-30T14:24:53.386Z,6.17
2019-01-30T14:27:34.591Z,7.57
2019-01-30T14:30:15.296Z,9.93
2019-01-30T14:32:54.775Z,9.03
2019-01-30T14:38:34.666Z,7.40
2019-01-30T14:41:14.180Z,8.37
2019-01-30T14:43:55.289Z,8.73
2019-01-30T14:46:36.694Z,8.97
2019-01-30T14:49:17.569Z,9.07
2019-01-30T14:51:59.126Z,9.27
2019-01-30T14:54:40.588Z,9.97
2019-01-30T14:57:21.475Z,9.57
2019-01-30T15:00:02.122Z,9.17
2019-01-30T15:02:43.554Z,9.17
2019-01-30T15:05:24.919Z,10.13
2019-01-30T15:08:06.367Z,9.67
2019-01-30T15:10:45.963Z,8.90
2019-01-30T15:16:39.984Z,10.07
2019-01-30T15:19:21.363Z,10.70
2019-01-30T15:22:02.571Z,9.33
2019-01-30T15:24:43.716Z,9.47
2019-01-30T15:27:25.266Z,9.03
2019-01-30T15:30:05.844Z,9.87
2019-01-30T15:32:46.477Z,10.30
2019-01-30T15:35:33.577Z,10.73
2019-01-30T15:38:11.111Z,10.87
2019-01-30T15:40:51.905Z,9.43
2019-01-30T15:43:35.340Z,11.23
2019-01-30T15:46:16.462Z,11.77
2019-01-30T15:48:57.668Z,11.67
2019-01-30T15:51:38.800Z,14.17
2019-01-30T15:54:20.095Z,12.30
2019-01-30T15:57:01.417Z,14.20
2019-01-30T15:59:42.288Z,15.03
2019-01-30T16:02:22.865Z,15.07
2019-01-30T16:05:04.265Z,15.40
2019-01-30T16:07:44.943Z,14.30
2019-01-30T16:10:26.476Z,15.23
2019-01-30T16:13:06.185Z,15.53
2019-01-30T16:15:47.359Z,14.70
2019-01-30T16:18:28.886Z,15.50
2019-01-30T16:21:09.845Z,15.27
2019-01-30T16:23:50.929Z,15.13
2019-01-30T16:26:31.787Z,15.47
2019-01-30T16:29:12.562Z,15.03
2019-01-30T16:31:54.145Z,15.47
2019-01-30T16:34:34.790Z,16.00
2019-01-30T16:37:16.073Z,16.40
2019-01-30T16:39:57.012Z,14.43
2019-01-30T16:42:38.279Z,15.10
2019-01-30T16:45:18.813Z,15.87
2019-01-30T16:47:59.355Z,15.90
2019-01-30T16:50:40.871Z,16.30
2019-01-30T16:53:22.224Z,15.30
2019-01-30T16:56:03.139Z,15.67
2019-01-30T16:58:43.766Z,16.00
2019-01-30T17:01:23.800Z,16.53
2019-01-30T17:04:02.325Z,16.77
2019-01-30T17:06:43.795Z,17.13
2019-01-30T18:11:50.630Z,18.07
2019-01-30T18:14:32.185Z,18.70
2019-01-30T18:17:13.018Z,17.83
2019-01-30T18:19:54.182Z,18.07
2019-01-30T18:22:35.733Z,20.73
2019-01-30T18:25:17.081Z,21.77
2019-01-30T18:27:58.342Z,20.30
2019-01-30T18:30:39.773Z,22.03
2019-01-30T18:33:20.878Z,21.70
2019-01-30T18:36:02.523Z,21.57
2019-01-30T18:38:43.838Z,21.67
2019-01-30T18:41:25.300Z,22.43
2019-01-30T18:44:06.672Z,21.07
2019-01-30T18:46:47.620Z,21.23
2019-01-30T18:49:28.959Z,21.63
2019-01-30T18:52:09.612Z,21.40
2019-01-30T18:54:50.644Z,20.63
2019-01-30T18:57:32.176Z,22.30
2019-01-30T19:00:12.892Z,21.20
2019-01-30T19:02:55.829Z,21.30
2019-01-30T19:05:36.346Z,21.00
2019-01-30T19:08:16.470Z,21.83
2019-01-30T19:10:57.439Z,19.73
2019-01-30T19:13:39.598Z,20.97
2019-01-30T19:16:20.350Z,20.33
2019-01-30T19:19:01.603Z,22.07
2019-01-30T19:21:42.877Z,19.83
2019-01-30T19:24:24.065Z,20.30
2019-01-30T19:27:04.869Z,20.17
2019-01-30T19:29:46.436Z,20.70
2019-01-30T19:32:27.766Z,20.77
2019-01-30T19:35:08.836Z,19.80
2019-01-30T19:37:49.501Z,20.87
2019-01-30T19:40:30.569Z,20.33
2019-01-30T19:43:11.499Z,20.33
2019-01-30T19:45:51.026Z,20.53
2019-01-30T19:48:32.396Z,18.97
2019-01-30T19:51:12.990Z,21.63
2019-01-30T19:53:53.683Z,19.60
2019-01-30T19:56:35.174Z,19.60
2019-01-30T19:59:17.621Z,20.07
2019-01-30T20:01:59.029Z,20.00
2019-01-30T20:04:38.572Z,21.13
2019-01-30T20:10:28.596Z,19.33
2019-01-30T20:13:10.049Z,20.77
2019-01-30T20:15:51.159Z,20.20
2019-01-30T20:18:31.695Z,20.00
2019-01-30T20:21:13.265Z,20.20
2019-01-30T20:23:53.990Z,20.40
2019-01-30T20:26:35.115Z,20.13
2019-01-30T20:29:15.625Z,19.93
2019-01-30T20:31:56.274Z,20.00
2019-01-30T20:34:37.403Z,19.53
2019-01-30T20:37:25.825Z,18.93
2019-01-30T20:40:00.878Z,19.80
2019-01-30T20:42:41.520Z,19.60
2019-01-30T20:45:33.072Z,20.00
2019-01-30T20:48:04.658Z,20.73
2019-01-30T20:50:46.182Z,19.20
2019-01-30T20:53:27.363Z,20.30
2019-01-30T20:56:07.957Z,19.67
2019-01-30T20:58:48.909Z,19.43
2019-01-30T21:01:30.150Z,21.57
2019-01-30T21:04:10.901Z,21.57
2019-01-30T21:06:52.098Z,20.90
2019-01-30T21:09:33.203Z,22.07
2019-01-30T21:12:14.552Z,22.37
2019-01-30T21:14:55.813Z,22.37
2019-01-30T21:17:36.565Z,22.93
2019-01-30T21:20:18.083Z,23.53
2019-01-30T21:22:59.526Z,22.70
2019-01-30T21:25:39.869Z,24.67
2019-01-30T21:31:28.082Z,23.00
2019-01-30T21:34:08.660Z,22.97
2019-01-30T21:36:49.295Z,24.93
2019-01-30T21:39:30.109Z,24.17
2019-01-30T21:42:11.614Z,23.83
2019-01-30T21:44:52.572Z,23.70
2019-01-30T21:47:33.169Z,24.90
2019-01-30T21:50:14.670Z,23.60
2019-01-30T21:52:55.897Z,24.40
2019-01-30T21:55:37.175Z,24.40
2019-01-30T21:58:18.103Z,23.57
2019-01-30T22:00:59.494Z,25.87
2019-01-30T22:03:40.838Z,23.77
2019-01-30T22:06:22.150Z,23.37
2019-01-30T22:09:03.826Z,22.27
2019-01-30T22:11:44.885Z,23.20
2019-01-30T22:14:25.657Z,22.70
2019-01-30T22:17:06.306Z,22.53
2019-01-30T22:19:47.516Z,22.53
2019-01-30T22:22:29.443Z,21.50
2019-01-30T22:25:20.010Z,20.17
2019-01-30T22:27:53.181Z,19.77
2019-01-30T22:30:34.715Z,20.50
2019-01-30T22:33:14.947Z,19.87
2019-01-30T22:35:55.604Z,19.50
2019-01-30T22:38:36.949Z,17.87
2019-01-30T22:41:17.700Z,18.97
2019-01-30T22:43:59.002Z,19.40
2019-01-30T22:46:40.287Z,18.17
2019-01-30T22:49:21.643Z,20.00
2019-01-30T22:52:02.529Z,19.97
2019-01-30T22:54:43.779Z,19.60
2019-01-30T22:57:24.429Z,18.63
2019-01-30T23:00:05.593Z,19.30
2019-01-30T23:02:47.046Z,19.97
2019-01-30T23:05:28.387Z,19.87
2019-01-30T23:08:09.910Z,19.30
2019-01-30T23:10:51.244Z,19.07
2019-01-30T23:13:32.619Z,20.63
2019-01-30T23:16:14.128Z,19.47
2019-01-30T23:18:55.731Z,20.03
2019-01-30T23:21:37.010Z,20.43
2019-01-30T23:24:41.695Z,19.73
2019-01-30T23:27:49.377Z,19.77
2019-01-30T23:30:30.345Z,19.17
2019-01-30T23:33:11.087Z,19.03
2019-01-30T23:35:51.820Z,19.87
2019-01-30T23:38:52.572Z,20.83
2019-01-30T23:41:33.651Z,20.87
2019-01-30T23:44:14.893Z,20.73
2019-01-30T23:46:56.468Z,20.97
2019-01-30T23:49:37.711Z,21.63
2019-01-30T23:52:19.264Z,20.67
2019-01-30T23:55:04.755Z,22.53
2019-01-30T23:57:45.436Z,21.87
